Time;durP1;ratioP1;P1;durP2;ratioP2;P2;SDS_P1;SDS_P2;PMS_P1;PMS_P2;Temp;Humidity;BMP_temperature;BMP_pressure;BME280_temperature;BME280_humidity;BME280_pressure;Samples;Min_cycle;Max_cycle;Signal;HPM_P1;HPM_P2
2023/08/01 00:01:32;;;;;;;;;;;17.70;99.90;;;;;;20919491;28;19924;-73
2023/08/01 00:11:33;;;;;;;;;;;17.80;99.90;;;;;;20923100;28;20310;-72
2023/08/01 00:21:34;;;;;;;;;;;17.40;99.90;;;;;;20917366;28;19916;-72
2023/08/01 00:31:34;;;;;;;;;;;17.40;99.90;;;;;;20915635;28;20302;-72
2023/08/01 00:41:35;;;;;;;;;;;17.60;99.90;;;;;;20916164;28;19959;-73
2023/08/01 00:51:36;;;;;;;;;;;17.70;99.90;;;;;;20915698;28;19974;-73
2023/08/01 01:01:36;;;;;;;;;;;17.70;99.90;;;;;;20914473;28;19970;-73
2023/08/01 01:11:37;;;;;;;;;;;17.70;99.90;;;;;;20913004;28;20559;-73
2023/08/01 01:21:38;;;;;;;;;;;17.60;99.90;;;;;;20910064;28;20027;-73
2023/08/01 01:31:39;;;;;;;;;;;17.60;99.90;;;;;;20912322;28;19921;-73
2023/08/01 01:41:40;;;;;;;;;;;17.70;99.90;;;;;;20911761;28;20402;-73
2023/08/01 01:51:40;;;;;;;;;;;17.70;99.90;;;;;;20909550;28;20520;-73
2023/08/01 02:01:41;;;;;;;;;;;17.70;99.90;;;;;;20913128;28;19971;-73
2023/08/01 02:11:42;;;;;;;;;;;17.50;99.90;;;;;;20908076;28;19925;-73
2023/08/01 02:21:42;;;;;;;;;;;17.40;99.90;;;;;;20875218;28;19917;-73
2023/08/01 02:31:43;;;;;;;;;;;17.30;99.90;;;;;;20903676;28;19916;-73
2023/08/01 02:41:44;;;;;;;;;;;17.50;99.90;;;;;;20906205;28;20390;-73
2023/08/01 02:51:44;;;;;;;;;;;17.90;99.90;;;;;;20911373;28;19913;-73
2023/08/01 03:01:45;;;;;;;;;;;18.40;99.90;;;;;;20906245;28;20406;-73
2023/08/01 03:11:45;;;;;;;;;;;18.60;99.90;;;;;;20905906;28;20474;-73
2023/08/01 03:21:46;;;;;;;;;;;19.10;99.90;;;;;;20904337;28;19927;-73
2023/08/01 03:31:47;;;;;;;;;;;19.40;99.90;;;;;;20905213;28;19913;-73
2023/08/01 03:41:48;;;;;;;;;;;18.90;99.90;;;;;;20908942;28;19923;-73
2023/08/01 03:51:48;;;;;;;;;;;18.70;99.90;;;;;;20922426;28;19913;-73
2023/08/01 04:01:50;;;;;;;;;;;18.70;99.90;;;;;;20879383;28;20291;-73
2023/08/01 04:11:51;;;;;;;;;;;19.20;99.90;;;;;;20904859;28;20008;-73
2023/08/01 04:21:51;;;;;;;;;;;19.20;99.90;;;;;;20853394;28;19948;-73
2023/08/01 04:31:52;;;;;;;;;;;18.50;99.90;;;;;;20877704;28;20325;-73
2023/08/01 04:41:52;;;;;;;;;;;18.00;99.90;;;;;;20890253;28;19917;-72
2023/08/01 04:51:55;;;;;;;;;;;17.80;99.90;;;;;;20885412;28;19917;-73
2023/08/01 05:01:56;;;;;;;;;;;17.60;99.90;;;;;;20907260;28;19921;-73
2023/08/01 05:11:57;;;;;;;;;;;17.50;99.90;;;;;;20883130;28;19920;-73
2023/08/01 05:21:57;;;;;;;;;;;17.40;99.90;;;;;;20902370;28;20009;-73
2023/08/01 05:31:58;;;;;;;;;;;17.60;99.90;;;;;;20915042;28;20000;-73
2023/08/01 05:41:59;;;;;;;;;;;17.50;99.90;;;;;;20911842;28;19956;-73
2023/08/01 05:51:59;;;;;;;;;;;17.40;99.90;;;;;;20910819;28;19912;-75
2023/08/01 06:02:00;;;;;;;;;;;17.20;99.90;;;;;;20909959;28;19952;-75
2023/08/01 06:12:00;;;;;;;;;;;16.90;99.90;;;;;;20909419;28;19955;-74
2023/08/01 06:22:01;;;;;;;;;;;16.80;99.90;;;;;;20909116;28;19917;-74
2023/08/01 06:32:02;;;;;;;;;;;16.70;99.90;;;;;;20911496;28;19967;-74
2023/08/01 06:42:03;;;;;;;;;;;16.70;99.90;;;;;;20895072;28;19921;-75
2023/08/01 06:52:03;;;;;;;;;;;16.90;99.90;;;;;;20849891;28;19920;-74
2023/08/01 07:02:04;;;;;;;;;;;16.70;99.90;;;;;;20907652;28;19921;-74
2023/08/01 07:12:05;;;;;;;;;;;17.00;99.90;;;;;;20906502;28;20326;-74
2023/08/01 07:22:06;;;;;;;;;;;16.90;99.90;;;;;;20925777;28;19940;-74
2023/08/01 07:32:07;;;;;;;;;;;17.00;99.90;;;;;;20922166;28;19998;-74
2023/08/01 07:42:07;;;;;;;;;;;17.10;99.90;;;;;;20893430;28;19936;-75
2023/08/01 07:52:08;;;;;;;;;;;17.10;99.90;;;;;;20895754;28;19957;-74
2023/08/01 08:02:08;;;;;;;;;;;17.00;99.90;;;;;;20836935;28;20307;-73
2023/08/01 08:12:09;;;;;;;;;;;16.90;99.90;;;;;;20834226;28;19982;-74
2023/08/01 08:22:10;;;;;;;;;;;16.80;99.90;;;;;;20861720;28;19960;-74
2023/08/01 08:32:10;;;;;;;;;;;16.70;99.90;;;;;;20916629;28;19913;-74
2023/08/01 08:42:11;;;;;;;;;;;16.50;99.90;;;;;;20915501;28;20003;-74
2023/08/01 08:52:12;;;;;;;;;;;16.50;99.90;;;;;;20915847;28;20350;-75
2023/08/01 09:02:14;;;;;;;;;;;16.40;99.90;;;;;;20915283;28;19916;-75
2023/08/01 09:12:15;;;;;;;;;;;16.20;99.90;;;;;;20918404;28;19916;-75
2023/08/01 09:22:16;;;;;;;;;;;16.20;99.90;;;;;;20913286;28;20021;-74
2023/08/01 09:32:18;;;;;;;;;;;16.40;99.90;;;;;;20911789;28;19912;-75
2023/08/01 09:42:19;;;;;;;;;;;16.50;99.90;;;;;;20912218;28;20441;-74
2023/08/01 09:52:29;;;;;;;;;;;16.60;99.90;;;;;;20871002;28;19913;-74
2023/08/01 10:02:32;;;;;;;;;;;17.00;99.90;;;;;;20910779;28;19920;-75
2023/08/01 10:12:33;;;;;;;;;;;17.40;99.90;;;;;;20914063;28;19982;-75
2023/08/01 10:22:37;;;;;;;;;;;17.50;99.90;;;;;;20856147;28;19917;-76
2023/08/01 10:32:39;;;;;;;;;;;17.60;99.90;;;;;;20908579;28;20423;-75
2023/08/01 10:42:40;;;;;;;;;;;17.70;99.90;;;;;;20906795;28;19917;-75
2023/08/01 10:52:41;;;;;;;;;;;17.80;99.90;;;;;;20907649;28;19970;-75
2023/08/01 11:02:42;;;;;;;;;;;17.90;99.90;;;;;;20913117;28;19917;-74
2023/08/01 11:12:43;;;;;;;;;;;17.90;99.90;;;;;;20907502;28;19920;-75
2023/08/01 11:23:04;;;;;;;;;;;18.30;99.90;;;;;;20906994;28;19920;-74
2023/08/01 11:33:14;;;;;;;;;;;18.60;99.90;;;;;;20906670;28;20318;-74
2023/08/01 11:43:15;;;;;;;;;;;18.80;99.90;;;;;;20896878;28;19924;-74
2023/08/01 11:53:20;;;;;;;;;;;19.10;99.90;;;;;;20857924;28;19935;-73
2023/08/01 12:03:21;;;;;;;;;;;18.30;99.90;;;;;;20908240;28;19917;-74
2023/08/01 12:13:22;;;;;;;;;;;18.30;99.90;;;;;;20870218;28;19912;-74
2023/08/01 12:23:22;;;;;;;;;;;19.30;99.90;;;;;;20910824;28;19943;-74
2023/08/01 12:33:24;;;;;;;;;;;19.10;99.90;;;;;;20922419;28;19913;-74
2023/08/01 12:43:24;;;;;;;;;;;19.40;99.90;;;;;;20916629;28;20338;-74
2023/08/01 12:53:25;;;;;;;;;;;19.60;99.90;;;;;;20922680;28;19917;-74
2023/08/01 13:03:30;;;;;;;;;;;19.70;99.90;;;;;;20916205;28;19916;-74
2023/08/01 13:13:31;;;;;;;;;;;20.60;99.90;;;;;;20913574;28;19935;-74
2023/08/01 13:23:32;;;;;;;;;;;19.90;99.90;;;;;;20914553;28;20383;-74
2023/08/01 13:33:32;;;;;;;;;;;20.10;99.90;;;;;;20904323;28;19982;-74
2023/08/01 13:43:33;;;;;;;;;;;20.20;99.90;;;;;;20913124;28;19912;-74
2023/08/01 13:53:40;;;;;;;;;;;19.80;99.90;;;;;;20915617;28;21376;-74
2023/08/01 14:03:41;;;;;;;;;;;19.50;99.90;;;;;;20907316;28;19974;-73
2023/08/01 14:13:42;;;;;;;;;;;19.70;99.90;;;;;;20829720;28;19996;-72
2023/08/01 14:23:42;;;;;;;;;;;19.20;99.90;;;;;;20827614;28;20402;-73
2023/08/01 14:33:43;;;;;;;;;;;19.70;99.90;;;;;;20865159;28;19913;-74
2023/08/01 14:43:44;;;;;;;;;;;19.30;99.90;;;;;;20911164;28;19913;-74
2023/08/01 14:53:45;;;;;;;;;;;19.60;99.90;;;;;;20892530;28;19913;-75
2023/08/01 15:03:45;;;;;;;;;;;19.60;99.90;;;;;;20870129;28;19923;-74
2023/08/01 15:13:46;;;;;;;;;;;19.80;99.90;;;;;;20907002;28;20443;-73
2023/08/01 15:23:47;;;;;;;;;;;19.90;99.90;;;;;;20850752;28;19919;-73
2023/08/01 15:33:47;;;;;;;;;;;20.00;99.90;;;;;;20865520;28;19913;-73
2023/08/01 15:43:48;;;;;;;;;;;20.50;99.90;;;;;;20895459;28;19913;-73
2023/08/01 15:53:49;;;;;;;;;;;20.40;99.90;;;;;;20920928;28;19912;-73
2023/08/01 16:03:49;;;;;;;;;;;20.30;99.90;;;;;;20920892;28;19917;-73
2023/08/01 16:13:50;;;;;;;;;;;20.20;99.90;;;;;;20916258;28;19982;-73
2023/08/01 16:23:51;;;;;;;;;;;19.80;99.90;;;;;;20834342;28;20380;-73
2023/08/01 16:33:52;;;;;;;;;;;20.30;99.90;;;;;;20877572;28;20360;-73
2023/08/01 16:43:55;;;;;;;;;;;20.40;99.90;;;;;;20917661;28;19935;-73
2023/08/01 16:53:56;;;;;;;;;;;19.50;99.90;;;;;;20914527;28;20315;-72
2023/08/01 17:03:57;;;;;;;;;;;19.50;99.90;;;;;;20892768;28;19917;-73
2023/08/01 17:13:57;;;;;;;;;;;19.80;99.90;;;;;;20875956;28;20393;-73
2023/08/01 17:23:58;;;;;;;;;;;19.90;99.90;;;;;;20902491;28;20538;-73
2023/08/01 17:33:59;;;;;;;;;;;20.10;99.90;;;;;;20918067;28;19943;-74
2023/08/01 17:44:02;;;;;;;;;;;19.80;99.90;;;;;;20913676;28;20440;-74
2023/08/01 17:54:03;;;;;;;;;;;19.60;99.90;;;;;;20911653;28;20299;-74
2023/08/01 18:04:04;;;;;;;;;;;19.30;99.90;;;;;;20910914;28;19932;-74
2023/08/01 18:14:05;;;;;;;;;;;19.20;99.90;;;;;;20909019;28;20295;-74
2023/08/01 18:24:06;;;;;;;;;;;19.20;99.90;;;;;;20913473;28;20355;-74
2023/08/01 18:34:07;;;;;;;;;;;19.10;99.90;;;;;;20903526;28;19956;-74
2023/08/01 18:44:07;;;;;;;;;;;18.90;99.90;;;;;;20864316;28;20342;-74
2023/08/01 18:54:08;;;;;;;;;;;18.60;99.90;;;;;;20853087;28;19917;-73
2023/08/01 19:04:09;;;;;;;;;;;18.40;99.90;;;;;;20882825;28;19917;-73
2023/08/01 19:14:09;;;;;;;;;;;18.20;99.90;;;;;;20913219;28;20007;-73
2023/08/01 19:24:10;;;;;;;;;;;17.90;99.90;;;;;;20923354;28;19919;-75
2023/08/01 19:34:11;;;;;;;;;;;17.70;99.90;;;;;;20923551;28;19921;-74
2023/08/01 19:44:11;;;;;;;;;;;17.60;99.90;;;;;;20922248;28;19913;-74
2023/08/01 19:54:12;;;;;;;;;;;17.20;99.90;;;;;;20921300;28;19923;-74
2023/08/01 20:04:12;;;;;;;;;;;17.00;99.90;;;;;;20919612;28;19959;-75
2023/08/01 20:14:14;;;;;;;;;;;16.50;99.90;;;;;;20925232;28;19916;-74
2023/08/01 20:24:14;;;;;;;;;;;16.20;99.90;;;;;;20918274;28;19913;-74
2023/08/01 20:34:15;;;;;;;;;;;16.00;99.90;;;;;;20918707;28;20414;-75
2023/08/01 20:44:16;;;;;;;;;;;16.10;99.90;;;;;;20917203;28;19963;-75
2023/08/01 20:54:16;;;;;;;;;;;15.50;99.90;;;;;;20875269;28;20012;-75
2023/08/01 21:04:17;;;;;;;;;;;15.40;99.90;;;;;;20873171;28;19916;-75
2023/08/01 21:14:18;;;;;;;;;;;15.40;99.90;;;;;;20887317;28;19924;-75
2023/08/01 21:24:18;;;;;;;;;;;15.10;99.90;;;;;;20914292;28;19970;-75
2023/08/01 21:34:19;;;;;;;;;;;15.00;99.90;;;;;;20912537;28;20276;-74
2023/08/01 21:44:19;;;;;;;;;;;14.90;99.90;;;;;;20900908;28;20051;-74
2023/08/01 21:54:20;;;;;;;;;;;15.10;99.90;;;;;;20869313;28;19921;-75
2023/08/01 22:04:21;;;;;;;;;;;15.20;99.90;;;;;;20836212;28;19960;-75
2023/08/01 22:14:21;;;;;;;;;;;14.60;99.90;;;;;;20828118;28;20295;-75
2023/08/01 22:24:22;;;;;;;;;;;14.30;99.90;;;;;;20894643;28;19958;-75
2023/08/01 22:34:24;;;;;;;;;;;13.80;99.90;;;;;;20909090;28;19927;-74
2023/08/01 22:44:25;;;;;;;;;;;13.40;99.90;;;;;;20910437;28;20011;-75
2023/08/01 22:54:25;;;;;;;;;;;13.50;99.90;;;;;;20878097;28;19971;-75
2023/08/01 23:04:26;;;;;;;;;;;13.70;99.90;;;;;;20824639;28;19971;-75
2023/08/01 23:14:27;;;;;;;;;;;13.50;99.90;;;;;;20824801;28;20417;-75
2023/08/01 23:24:27;;;;;;;;;;;13.20;99.90;;;;;;20890757;28;19912;-75
2023/08/01 23:34:28;;;;;;;;;;;13.20;99.90;;;;;;20906303;28;19916;-75
2023/08/01 23:44:29;;;;;;;;;;;12.90;99.90;;;;;;20906275;28;19958;-75
2023/08/01 23:54:30;;;;;;;;;;;12.60;99.90;;;;;;20910551;28;20407;-74
